sensor_id;sensor_type;location;lat;lon;timestamp;P1;durP1;ratioP1;P2;durP2;ratioP2
81716;SDS011;71269;44.108;3.074;2023-08-08T00:00:50;4.03;;;1.50;;
81716;SDS011;71269;44.108;3.074;2023-08-08T00:03:16;4.18;;;1.40;;
81716;SDS011;71269;44.108;3.074;2023-08-08T00:05:41;5.78;;;1.70;;
81716;SDS011;71269;44.108;3.074;2023-08-08T00:08:06;2.92;;;1.40;;
81716;SDS011;71269;44.108;3.074;2023-08-08T00:10:32;5.60;;;1.65;;
81716;SDS011;71269;44.108;3.074;2023-08-08T00:12:57;3.58;;;1.40;;
81716;SDS011;71269;44.108;3.074;2023-08-08T00:15:23;4.10;;;1.63;;
81716;SDS011;71269;44.108;3.074;2023-08-08T00:17:48;3.63;;;1.45;;
81716;SDS011;71269;44.108;3.074;2023-08-08T00:20:14;2.85;;;1.23;;
81716;SDS011;71269;44.108;3.074;2023-08-08T00:22:40;4.50;;;1.70;;
81716;SDS011;71269;44.108;3.074;2023-08-08T00:25:06;3.47;;;1.58;;
81716;SDS011;71269;44.108;3.074;2023-08-08T00:27:32;4.10;;;1.50;;
81716;SDS011;71269;44.108;3.074;2023-08-08T00:29:57;4.18;;;1.42;;
81716;SDS011;71269;44.108;3.074;2023-08-08T00:32:22;4.72;;;1.73;;
81716;SDS011;71269;44.108;3.074;2023-08-08T00:34:48;2.60;;;1.23;;
81716;SDS011;71269;44.108;3.074;2023-08-08T00:37:13;3.33;;;1.55;;
81716;SDS011;71269;44.108;3.074;2023-08-08T00:39:38;6.47;;;1.88;;
81716;SDS011;71269;44.108;3.074;2023-08-08T00:42:07;4.18;;;1.40;;
81716;SDS011;71269;44.108;3.074;2023-08-08T00:44:32;4.18;;;1.55;;
81716;SDS011;71269;44.108;3.074;2023-08-08T00:46:58;4.22;;;1.65;;
81716;SDS011;71269;44.108;3.074;2023-08-08T00:49:23;3.83;;;1.40;;
81716;SDS011;71269;44.108;3.074;2023-08-08T00:51:48;2.90;;;1.17;;
81716;SDS011;71269;44.108;3.074;2023-08-08T00:54:14;2.88;;;1.30;;
81716;SDS011;71269;44.108;3.074;2023-08-08T00:56:40;4.07;;;1.67;;
81716;SDS011;71269;44.108;3.074;2023-08-08T00:59:06;3.33;;;1.40;;
81716;SDS011;71269;44.108;3.074;2023-08-08T01:01:32;4.72;;;1.50;;
81716;SDS011;71269;44.108;3.074;2023-08-08T01:03:58;3.63;;;1.20;;
81716;SDS011;71269;44.108;3.074;2023-08-08T01:06:31;4.82;;;1.70;;
81716;SDS011;71269;44.108;3.074;2023-08-08T01:09:09;5.20;;;1.60;;
81716;SDS011;71269;44.108;3.074;2023-08-08T01:11:40;5.32;;;1.48;;
81716;SDS011;71269;44.108;3.074;2023-08-08T01:14:06;4.60;;;1.70;;
81716;SDS011;71269;44.108;3.074;2023-08-08T01:16:32;4.57;;;1.48;;
81716;SDS011;71269;44.108;3.074;2023-08-08T01:18:58;3.10;;;1.40;;
81716;SDS011;71269;44.108;3.074;2023-08-08T01:21:24;4.82;;;1.80;;
81716;SDS011;71269;44.108;3.074;2023-08-08T01:23:53;3.92;;;1.60;;
81716;SDS011;71269;44.108;3.074;2023-08-08T01:26:22;4.13;;;1.40;;
81716;SDS011;71269;44.108;3.074;2023-08-08T01:28:48;4.07;;;1.50;;
81716;SDS011;71269;44.108;3.074;2023-08-08T01:31:17;4.63;;;1.50;;
81716;SDS011;71269;44.108;3.074;2023-08-08T01:33:43;3.88;;;1.48;;
81716;SDS011;71269;44.108;3.074;2023-08-08T01:36:18;4.07;;;1.48;;
81716;SDS011;71269;44.108;3.074;2023-08-08T01:38:46;3.00;;;1.27;;
81716;SDS011;71269;44.108;3.074;2023-08-08T01:41:14;3.88;;;1.33;;
81716;SDS011;71269;44.108;3.074;2023-08-08T01:43:40;2.92;;;1.25;;
81716;SDS011;71269;44.108;3.074;2023-08-08T01:46:06;3.78;;;1.52;;
81716;SDS011;71269;44.108;3.074;2023-08-08T01:48:32;3.60;;;1.30;;
81716;SDS011;71269;44.108;3.074;2023-08-08T01:50:58;3.72;;;1.52;;
81716;SDS011;71269;44.108;3.074;2023-08-08T01:53:23;4.78;;;1.50;;
81716;SDS011;71269;44.108;3.074;2023-08-08T01:55:48;3.90;;;1.60;;
81716;SDS011;71269;44.108;3.074;2023-08-08T01:58:14;4.15;;;1.63;;
81716;SDS011;71269;44.108;3.074;2023-08-08T02:00:39;4.25;;;1.48;;
81716;SDS011;71269;44.108;3.074;2023-08-08T02:03:06;3.38;;;1.50;;
81716;SDS011;71269;44.108;3.074;2023-08-08T02:05:31;3.67;;;1.30;;
81716;SDS011;71269;44.108;3.074;2023-08-08T02:07:57;4.65;;;1.77;;
81716;SDS011;71269;44.108;3.074;2023-08-08T02:10:22;3.67;;;1.48;;
81716;SDS011;71269;44.108;3.074;2023-08-08T02:12:48;3.92;;;1.65;;
81716;SDS011;71269;44.108;3.074;2023-08-08T02:15:13;3.53;;;1.30;;
81716;SDS011;71269;44.108;3.074;2023-08-08T02:17:38;3.90;;;1.58;;
81716;SDS011;71269;44.108;3.074;2023-08-08T02:20:05;4.72;;;1.95;;
81716;SDS011;71269;44.108;3.074;2023-08-08T02:22:31;2.42;;;1.10;;
81716;SDS011;71269;44.108;3.074;2023-08-08T02:24:57;3.20;;;1.20;;
81716;SDS011;71269;44.108;3.074;2023-08-08T02:27:22;3.25;;;1.33;;
81716;SDS011;71269;44.108;3.074;2023-08-08T02:29:48;2.88;;;1.17;;
81716;SDS011;71269;44.108;3.074;2023-08-08T02:32:13;2.88;;;1.23;;
81716;SDS011;71269;44.108;3.074;2023-08-08T02:34:39;4.13;;;1.52;;
81716;SDS011;71269;44.108;3.074;2023-08-08T02:37:04;3.75;;;1.33;;
81716;SDS011;71269;44.108;3.074;2023-08-08T02:39:29;4.50;;;1.60;;
81716;SDS011;71269;44.108;3.074;2023-08-08T02:41:55;5.60;;;1.52;;
81716;SDS011;71269;44.108;3.074;2023-08-08T02:44:20;4.85;;;1.77;;
81716;SDS011;71269;44.108;3.074;2023-08-08T02:46:47;4.47;;;1.52;;
81716;SDS011;71269;44.108;3.074;2023-08-08T02:49:12;4.25;;;1.48;;
81716;SDS011;71269;44.108;3.074;2023-08-08T02:51:38;3.83;;;1.88;;
81716;SDS011;71269;44.108;3.074;2023-08-08T02:54:03;4.60;;;1.52;;
81716;SDS011;71269;44.108;3.074;2023-08-08T02:56:29;4.43;;;1.48;;
81716;SDS011;71269;44.108;3.074;2023-08-08T02:58:54;4.53;;;1.48;;
81716;SDS011;71269;44.108;3.074;2023-08-08T03:01:19;6.65;;;1.60;;
81716;SDS011;71269;44.108;3.074;2023-08-08T03:03:45;4.72;;;1.52;;
81716;SDS011;71269;44.108;3.074;2023-08-08T03:06:10;3.78;;;1.35;;
81716;SDS011;71269;44.108;3.074;2023-08-08T03:08:35;3.80;;;1.35;;
81716;SDS011;71269;44.108;3.074;2023-08-08T03:11:01;4.70;;;1.80;;
81716;SDS011;71269;44.108;3.074;2023-08-08T03:13:26;2.80;;;1.15;;
81716;SDS011;71269;44.108;3.074;2023-08-08T03:15:52;3.58;;;1.50;;
81716;SDS011;71269;44.108;3.074;2023-08-08T03:18:17;3.10;;;1.40;;
81716;SDS011;71269;44.108;3.074;2023-08-08T03:20:42;3.55;;;1.45;;
81716;SDS011;71269;44.108;3.074;2023-08-08T03:23:08;3.38;;;1.40;;
81716;SDS011;71269;44.108;3.074;2023-08-08T03:25:33;4.07;;;1.50;;
81716;SDS011;71269;44.108;3.074;2023-08-08T03:27:59;4.47;;;1.40;;
81716;SDS011;71269;44.108;3.074;2023-08-08T03:30:24;3.63;;;1.48;;
81716;SDS011;71269;44.108;3.074;2023-08-08T03:32:49;3.22;;;1.38;;
81716;SDS011;71269;44.108;3.074;2023-08-08T03:35:15;4.70;;;1.50;;
81716;SDS011;71269;44.108;3.074;2023-08-08T03:37:41;4.00;;;1.40;;
81716;SDS011;71269;44.108;3.074;2023-08-08T03:40:07;3.25;;;1.40;;
81716;SDS011;71269;44.108;3.074;2023-08-08T03:42:32;3.70;;;1.58;;
81716;SDS011;71269;44.108;3.074;2023-08-08T03:44:58;4.28;;;1.50;;
81716;SDS011;71269;44.108;3.074;2023-08-08T03:47:24;3.10;;;1.40;;
81716;SDS011;71269;44.108;3.074;2023-08-08T03:49:49;3.70;;;1.48;;
81716;SDS011;71269;44.108;3.074;2023-08-08T03:52:14;3.40;;;1.40;;
81716;SDS011;71269;44.108;3.074;2023-08-08T03:54:40;3.58;;;1.55;;
81716;SDS011;71269;44.108;3.074;2023-08-08T03:57:05;4.25;;;1.50;;
81716;SDS011;71269;44.108;3.074;2023-08-08T03:59:31;4.60;;;1.20;;
81716;SDS011;71269;44.108;3.074;2023-08-08T04:01:56;3.60;;;1.38;;
81716;SDS011;71269;44.108;3.074;2023-08-08T04:04:21;5.03;;;1.67;;
81716;SDS011;71269;44.108;3.074;2023-08-08T04:06:47;3.00;;;1.38;;
81716;SDS011;71269;44.108;3.074;2023-08-08T04:09:12;2.97;;;1.30;;
81716;SDS011;71269;44.108;3.074;2023-08-08T04:11:37;2.80;;;1.35;;
81716;SDS011;71269;44.108;3.074;2023-08-08T04:14:03;3.45;;;1.33;;
81716;SDS011;71269;44.108;3.074;2023-08-08T04:16:28;5.18;;;1.58;;
81716;SDS011;71269;44.108;3.074;2023-08-08T04:18:54;3.50;;;1.60;;
81716;SDS011;71269;44.108;3.074;2023-08-08T04:21:19;2.40;;;1.13;;
81716;SDS011;71269;44.108;3.074;2023-08-08T04:23:44;5.90;;;1.48;;
81716;SDS011;71269;44.108;3.074;2023-08-08T04:26:10;3.92;;;1.60;;
81716;SDS011;71269;44.108;3.074;2023-08-08T04:28:35;3.70;;;1.40;;
81716;SDS011;71269;44.108;3.074;2023-08-08T04:31:00;3.03;;;1.40;;
81716;SDS011;71269;44.108;3.074;2023-08-08T04:33:26;2.88;;;1.27;;
81716;SDS011;71269;44.108;3.074;2023-08-08T04:35:51;3.55;;;1.52;;
81716;SDS011;71269;44.108;3.074;2023-08-08T04:38:17;3.08;;;1.23;;
81716;SDS011;71269;44.108;3.074;2023-08-08T04:40:42;3.55;;;1.33;;
81716;SDS011;71269;44.108;3.074;2023-08-08T04:43:08;3.20;;;1.30;;
81716;SDS011;71269;44.108;3.074;2023-08-08T04:45:33;3.35;;;1.35;;
81716;SDS011;71269;44.108;3.074;2023-08-08T04:47:59;2.97;;;1.50;;
81716;SDS011;71269;44.108;3.074;2023-08-08T04:50:24;6.80;;;1.60;;
81716;SDS011;71269;44.108;3.074;2023-08-08T04:52:49;6.20;;;2.10;;
81716;SDS011;71269;44.108;3.074;2023-08-08T04:55:15;4.35;;;1.30;;
81716;SDS011;71269;44.108;3.074;2023-08-08T04:57:40;2.67;;;1.30;;
81716;SDS011;71269;44.108;3.074;2023-08-08T05:00:06;2.90;;;1.30;;
81716;SDS011;71269;44.108;3.074;2023-08-08T05:02:34;3.15;;;1.30;;
81716;SDS011;71269;44.108;3.074;2023-08-08T05:05:00;3.10;;;1.35;;
81716;SDS011;71269;44.108;3.074;2023-08-08T05:07:26;3.17;;;1.50;;
81716;SDS011;71269;44.108;3.074;2023-08-08T05:09:54;2.17;;;1.13;;
81716;SDS011;71269;44.108;3.074;2023-08-08T05:12:19;3.10;;;1.40;;
81716;SDS011;71269;44.108;3.074;2023-08-08T05:14:45;3.95;;;1.52;;
81716;SDS011;71269;44.108;3.074;2023-08-08T05:17:10;4.40;;;1.67;;
81716;SDS011;71269;44.108;3.074;2023-08-08T05:19:35;3.85;;;1.58;;
81716;SDS011;71269;44.108;3.074;2023-08-08T05:22:01;4.45;;;1.50;;
81716;SDS011;71269;44.108;3.074;2023-08-08T05:24:26;6.75;;;1.55;;
81716;SDS011;71269;44.108;3.074;2023-08-08T05:26:52;7.88;;;1.60;;
81716;SDS011;71269;44.108;3.074;2023-08-08T05:29:18;9.85;;;1.83;;
81716;SDS011;71269;44.108;3.074;2023-08-08T05:31:44;18.00;;;2.47;;
81716;SDS011;71269;44.108;3.074;2023-08-08T05:34:09;6.57;;;1.55;;
81716;SDS011;71269;44.108;3.074;2023-08-08T05:36:35;5.03;;;1.73;;
81716;SDS011;71269;44.108;3.074;2023-08-08T05:39:00;4.45;;;1.70;;
81716;SDS011;71269;44.108;3.074;2023-08-08T05:41:25;3.03;;;1.40;;
81716;SDS011;71269;44.108;3.074;2023-08-08T05:43:51;3.17;;;1.35;;
81716;SDS011;71269;44.108;3.074;2023-08-08T05:46:16;4.35;;;1.40;;
81716;SDS011;71269;44.108;3.074;2023-08-08T05:48:41;3.85;;;1.40;;
81716;SDS011;71269;44.108;3.074;2023-08-08T05:51:07;3.55;;;1.40;;
81716;SDS011;71269;44.108;3.074;2023-08-08T05:53:32;3.42;;;1.20;;
81716;SDS011;71269;44.108;3.074;2023-08-08T05:55:57;3.78;;;1.40;;
81716;SDS011;71269;44.108;3.074;2023-08-08T05:58:23;4.32;;;1.40;;
81716;SDS011;71269;44.108;3.074;2023-08-08T06:00:49;8.07;;;1.67;;
81716;SDS011;71269;44.108;3.074;2023-08-08T06:03:15;19.45;;;2.50;;
81716;SDS011;71269;44.108;3.074;2023-08-08T06:05:40;26.05;;;2.63;;
81716;SDS011;71269;44.108;3.074;2023-08-08T06:08:05;28.17;;;2.53;;
81716;SDS011;71269;44.108;3.074;2023-08-08T06:10:36;4.43;;;1.60;;
81716;SDS011;71269;44.108;3.074;2023-08-08T06:13:01;3.45;;;1.30;;
81716;SDS011;71269;44.108;3.074;2023-08-08T06:15:27;4.20;;;1.17;;
81716;SDS011;71269;44.108;3.074;2023-08-08T06:17:52;2.47;;;1.15;;
81716;SDS011;71269;44.108;3.074;2023-08-08T06:20:18;3.92;;;1.23;;
81716;SDS011;71269;44.108;3.074;2023-08-08T06:22:43;3.80;;;1.30;;
81716;SDS011;71269;44.108;3.074;2023-08-08T06:25:09;20.98;;;2.35;;
81716;SDS011;71269;44.108;3.074;2023-08-08T06:27:34;9.70;;;1.63;;
81716;SDS011;71269;44.108;3.074;2023-08-08T06:29:59;7.13;;;1.55;;
81716;SDS011;71269;44.108;3.074;2023-08-08T06:32:25;8.75;;;1.88;;
81716;SDS011;71269;44.108;3.074;2023-08-08T06:34:50;4.28;;;1.23;;
81716;SDS011;71269;44.108;3.074;2023-08-08T06:37:15;2.75;;;1.10;;
81716;SDS011;71269;44.108;3.074;2023-08-08T06:39:41;2.47;;;1.13;;
81716;SDS011;71269;44.108;3.074;2023-08-08T06:42:07;3.55;;;1.33;;
81716;SDS011;71269;44.108;3.074;2023-08-08T06:44:32;3.45;;;1.40;;
81716;SDS011;71269;44.108;3.074;2023-08-08T06:46:58;3.35;;;1.40;;
81716;SDS011;71269;44.108;3.074;2023-08-08T06:49:23;3.90;;;1.10;;
81716;SDS011;71269;44.108;3.074;2023-08-08T06:51:48;4.55;;;1.30;;
81716;SDS011;71269;44.108;3.074;2023-08-08T06:54:14;4.90;;;1.40;;
81716;SDS011;71269;44.108;3.074;2023-08-08T06:56:39;5.45;;;1.40;;
81716;SDS011;71269;44.108;3.074;2023-08-08T06:59:04;4.00;;;1.20;;
81716;SDS011;71269;44.108;3.074;2023-08-08T07:01:30;4.60;;;1.20;;
81716;SDS011;71269;44.108;3.074;2023-08-08T07:03:55;5.10;;;1.50;;
81716;SDS011;71269;44.108;3.074;2023-08-08T07:06:21;9.43;;;1.33;;
81716;SDS011;71269;44.108;3.074;2023-08-08T07:08:46;3.28;;;1.30;;
81716;SDS011;71269;44.108;3.074;2023-08-08T07:11:11;5.13;;;1.20;;
81716;SDS011;71269;44.108;3.074;2023-08-08T07:13:37;3.75;;;1.30;;
81716;SDS011;71269;44.108;3.074;2023-08-08T07:16:02;2.67;;;1.20;;
81716;SDS011;71269;44.108;3.074;2023-08-08T07:18:28;4.32;;;1.38;;
81716;SDS011;71269;44.108;3.074;2023-08-08T07:20:53;3.35;;;1.20;;
81716;SDS011;71269;44.108;3.074;2023-08-08T07:23:19;3.60;;;1.20;;
81716;SDS011;71269;44.108;3.074;2023-08-08T07:25:47;4.63;;;1.52;;
81716;SDS011;71269;44.108;3.074;2023-08-08T07:28:12;3.30;;;1.20;;
81716;SDS011;71269;44.108;3.074;2023-08-08T07:30:39;4.47;;;1.30;;
81716;SDS011;71269;44.108;3.074;2023-08-08T07:33:05;2.47;;;1.10;;
81716;SDS011;71269;44.108;3.074;2023-08-08T07:35:32;2.90;;;1.30;;
81716;SDS011;71269;44.108;3.074;2023-08-08T07:37:58;3.75;;;1.30;;
81716;SDS011;71269;44.108;3.074;2023-08-08T07:40:23;3.03;;;1.10;;
81716;SDS011;71269;44.108;3.074;2023-08-08T07:42:49;4.03;;;1.13;;
81716;SDS011;71269;44.108;3.074;2023-08-08T07:45:14;4.97;;;1.60;;
81716;SDS011;71269;44.108;3.074;2023-08-08T07:47:40;4.35;;;1.65;;
81716;SDS011;71269;44.108;3.074;2023-08-08T07:50:06;4.30;;;1.27;;
81716;SDS011;71269;44.108;3.074;2023-08-08T07:52:34;3.17;;;1.30;;
81716;SDS011;71269;44.108;3.074;2023-08-08T07:55:00;4.03;;;1.15;;
81716;SDS011;71269;44.108;3.074;2023-08-08T07:57:26;3.90;;;1.10;;
81716;SDS011;71269;44.108;3.074;2023-08-08T07:59:52;4.05;;;1.58;;
81716;SDS011;71269;44.108;3.074;2023-08-08T08:02:17;2.55;;;1.10;;
81716;SDS011;71269;44.108;3.074;2023-08-08T08:04:42;4.47;;;1.30;;
81716;SDS011;71269;44.108;3.074;2023-08-08T08:07:08;3.67;;;1.05;;
81716;SDS011;71269;44.108;3.074;2023-08-08T08:09:33;2.63;;;1.10;;
81716;SDS011;71269;44.108;3.074;2023-08-08T08:11:59;2.80;;;1.10;;
81716;SDS011;71269;44.108;3.074;2023-08-08T08:14:24;4.15;;;1.10;;
81716;SDS011;71269;44.108;3.074;2023-08-08T08:16:50;2.60;;;0.90;;
81716;SDS011;71269;44.108;3.074;2023-08-08T08:19:16;3.95;;;1.00;;
81716;SDS011;71269;44.108;3.074;2023-08-08T08:21:41;2.55;;;1.10;;
81716;SDS011;71269;44.108;3.074;2023-08-08T08:24:06;5.15;;;1.20;;
81716;SDS011;71269;44.108;3.074;2023-08-08T08:26:32;3.60;;;1.23;;
81716;SDS011;71269;44.108;3.074;2023-08-08T08:28:57;2.63;;;1.10;;
81716;SDS011;71269;44.108;3.074;2023-08-08T08:31:23;3.50;;;1.00;;
81716;SDS011;71269;44.108;3.074;2023-08-08T08:33:48;4.75;;;1.00;;
81716;SDS011;71269;44.108;3.074;2023-08-08T08:36:14;3.20;;;0.98;;
81716;SDS011;71269;44.108;3.074;2023-08-08T08:38:39;3.20;;;1.08;;
81716;SDS011;71269;44.108;3.074;2023-08-08T08:41:04;5.93;;;2.42;;
81716;SDS011;71269;44.108;3.074;2023-08-08T08:43:33;10.25;;;3.80;;
81716;SDS011;71269;44.108;3.074;2023-08-08T08:45:59;6.55;;;1.52;;
81716;SDS011;71269;44.108;3.074;2023-08-08T08:48:27;3.47;;;1.10;;
81716;SDS011;71269;44.108;3.074;2023-08-08T08:50:52;2.85;;;0.80;;
81716;SDS011;71269;44.108;3.074;2023-08-08T08:53:18;3.17;;;1.10;;
81716;SDS011;71269;44.108;3.074;2023-08-08T08:55:43;3.17;;;0.90;;
81716;SDS011;71269;44.108;3.074;2023-08-08T08:58:09;3.42;;;0.90;;
81716;SDS011;71269;44.108;3.074;2023-08-08T09:00:35;1.95;;;0.85;;
81716;SDS011;71269;44.108;3.074;2023-08-08T09:03:01;3.38;;;0.90;;
81716;SDS011;71269;44.108;3.074;2023-08-08T09:05:27;3.90;;;0.90;;
81716;SDS011;71269;44.108;3.074;2023-08-08T09:07:52;4.18;;;1.00;;
81716;SDS011;71269;44.108;3.074;2023-08-08T09:10:18;1.92;;;0.75;;
81716;SDS011;71269;44.108;3.074;2023-08-08T09:12:44;2.22;;;0.70;;
81716;SDS011;71269;44.108;3.074;2023-08-08T09:15:10;2.03;;;0.80;;
81716;SDS011;71269;44.108;3.074;2023-08-08T09:17:40;2.58;;;0.88;;
81716;SDS011;71269;44.108;3.074;2023-08-08T09:20:06;2.40;;;0.90;;
81716;SDS011;71269;44.108;3.074;2023-08-08T09:22:33;2.45;;;0.93;;
81716;SDS011;71269;44.108;3.074;2023-08-08T09:24:58;2.78;;;0.95;;
81716;SDS011;71269;44.108;3.074;2023-08-08T09:27:24;3.45;;;1.33;;
81716;SDS011;71269;44.108;3.074;2023-08-08T09:29:49;3.28;;;1.00;;
81716;SDS011;71269;44.108;3.074;2023-08-08T09:32:15;5.75;;;0.98;;
81716;SDS011;71269;44.108;3.074;2023-08-08T09:34:43;1.92;;;0.70;;
81716;SDS011;71269;44.108;3.074;2023-08-08T09:37:08;2.80;;;0.93;;
81716;SDS011;71269;44.108;3.074;2023-08-08T09:39:35;3.92;;;1.17;;
81716;SDS011;71269;44.108;3.074;2023-08-08T09:42:01;5.13;;;1.52;;
81716;SDS011;71269;44.108;3.074;2023-08-08T09:44:29;3.40;;;1.00;;
81716;SDS011;71269;44.108;3.074;2023-08-08T09:46:55;3.35;;;1.23;;
81716;SDS011;71269;44.108;3.074;2023-08-08T09:49:21;3.15;;;1.10;;
81716;SDS011;71269;44.108;3.074;2023-08-08T09:51:47;3.97;;;1.20;;
81716;SDS011;71269;44.108;3.074;2023-08-08T09:54:13;2.78;;;1.10;;
81716;SDS011;71269;44.108;3.074;2023-08-08T09:56:39;2.53;;;0.90;;
81716;SDS011;71269;44.108;3.074;2023-08-08T09:59:04;3.53;;;1.13;;
81716;SDS011;71269;44.108;3.074;2023-08-08T10:01:30;3.08;;;1.10;;
81716;SDS011;71269;44.108;3.074;2023-08-08T10:03:56;3.05;;;1.00;;
81716;SDS011;71269;44.108;3.074;2023-08-08T10:06:22;3.15;;;1.20;;
81716;SDS011;71269;44.108;3.074;2023-08-08T10:08:47;5.15;;;1.25;;
81716;SDS011;71269;44.108;3.074;2023-08-08T10:11:13;5.80;;;0.95;;
81716;SDS011;71269;44.108;3.074;2023-08-08T10:13:46;3.00;;;0.90;;
81716;SDS011;71269;44.108;3.074;2023-08-08T10:16:15;3.20;;;1.20;;
81716;SDS011;71269;44.108;3.074;2023-08-08T10:18:41;3.50;;;1.17;;
81716;SDS011;71269;44.108;3.074;2023-08-08T10:21:06;2.67;;;1.10;;
81716;SDS011;71269;44.108;3.074;2023-08-08T10:23:35;2.97;;;1.20;;
81716;SDS011;71269;44.108;3.074;2023-08-08T10:26:02;3.35;;;1.10;;
81716;SDS011;71269;44.108;3.074;2023-08-08T10:28:27;3.60;;;0.90;;
81716;SDS011;71269;44.108;3.074;2023-08-08T10:30:55;2.47;;;1.13;;
81716;SDS011;71269;44.108;3.074;2023-08-08T10:33:25;4.82;;;1.27;;
81716;SDS011;71269;44.108;3.074;2023-08-08T10:39:05;3.13;;;1.20;;
81716;SDS011;71269;44.108;3.074;2023-08-08T10:41:25;3.53;;;1.15;;
81716;SDS011;71269;44.108;3.074;2023-08-08T10:43:56;3.17;;;1.60;;
81716;SDS011;71269;44.108;3.074;2023-08-08T10:46:31;3.83;;;1.60;;
81716;SDS011;71269;44.108;3.074;2023-08-08T10:49:01;3.65;;;1.85;;
81716;SDS011;71269;44.108;3.074;2023-08-08T10:51:37;4.03;;;1.77;;
81716;SDS011;71269;44.108;3.074;2023-08-08T10:56:41;4.22;;;1.92;;
81716;SDS011;71269;44.108;3.074;2023-08-08T10:59:14;3.65;;;1.90;;
81716;SDS011;71269;44.108;3.074;2023-08-08T11:01:41;3.72;;;1.95;;
81716;SDS011;71269;44.108;3.074;2023-08-08T11:04:06;4.65;;;1.83;;
81716;SDS011;71269;44.108;3.074;2023-08-08T11:06:32;6.28;;;2.40;;
81716;SDS011;71269;44.108;3.074;2023-08-08T11:08:58;4.95;;;2.45;;
81716;SDS011;71269;44.108;3.074;2023-08-08T11:11:23;4.40;;;1.73;;
81716;SDS011;71269;44.108;3.074;2023-08-08T11:13:51;4.03;;;2.00;;
81716;SDS011;71269;44.108;3.074;2023-08-08T11:16:17;4.22;;;2.20;;
81716;SDS011;71269;44.108;3.074;2023-08-08T11:18:42;4.00;;;1.95;;
81716;SDS011;71269;44.108;3.074;2023-08-08T11:21:11;4.32;;;2.10;;
81716;SDS011;71269;44.108;3.074;2023-08-08T11:23:37;4.65;;;2.30;;
81716;SDS011;71269;44.108;3.074;2023-08-08T11:26:03;4.13;;;2.35;;
81716;SDS011;71269;44.108;3.074;2023-08-08T11:28:28;5.05;;;2.50;;
81716;SDS011;71269;44.108;3.074;2023-08-08T11:30:55;4.22;;;2.25;;
81716;SDS011;71269;44.108;3.074;2023-08-08T11:33:20;3.92;;;2.00;;
81716;SDS011;71269;44.108;3.074;2023-08-08T11:35:47;3.92;;;1.75;;
81716;SDS011;71269;44.108;3.074;2023-08-08T11:38:14;3.67;;;1.92;;
81716;SDS011;71269;44.108;3.074;2023-08-08T11:40:40;3.85;;;2.22;;
81716;SDS011;71269;44.108;3.074;2023-08-08T11:43:05;3.33;;;1.77;;
81716;SDS011;71269;44.108;3.074;2023-08-08T11:45:32;3.05;;;1.50;;
81716;SDS011;71269;44.108;3.074;2023-08-08T11:47:57;3.28;;;1.60;;
81716;SDS011;71269;44.108;3.074;2023-08-08T11:50:24;4.50;;;2.30;;
81716;SDS011;71269;44.108;3.074;2023-08-08T11:52:53;3.85;;;1.88;;
81716;SDS011;71269;44.108;3.074;2023-08-08T11:55:19;3.97;;;2.05;;
81716;SDS011;71269;44.108;3.074;2023-08-08T11:57:47;3.95;;;1.60;;
81716;SDS011;71269;44.108;3.074;2023-08-08T12:00:13;4.57;;;1.70;;
81716;SDS011;71269;44.108;3.074;2023-08-08T12:02:42;3.30;;;1.85;;
81716;SDS011;71269;44.108;3.074;2023-08-08T12:05:11;3.17;;;1.80;;
81716;SDS011;71269;44.108;3.074;2023-08-08T12:07:39;3.30;;;1.73;;
81716;SDS011;71269;44.108;3.074;2023-08-08T12:12:42;3.83;;;1.80;;
81716;SDS011;71269;44.108;3.074;2023-08-08T12:15:08;3.75;;;1.80;;
81716;SDS011;71269;44.108;3.074;2023-08-08T12:17:34;3.63;;;1.70;;
81716;SDS011;71269;44.108;3.074;2023-08-08T12:20:02;3.60;;;1.95;;
81716;SDS011;71269;44.108;3.074;2023-08-08T12:22:30;3.60;;;1.90;;
81716;SDS011;71269;44.108;3.074;2023-08-08T12:24:56;4.30;;;1.77;;
81716;SDS011;71269;44.108;3.074;2023-08-08T12:27:21;4.20;;;1.90;;
81716;SDS011;71269;44.108;3.074;2023-08-08T12:29:47;3.60;;;1.88;;
81716;SDS011;71269;44.108;3.074;2023-08-08T12:32:12;4.50;;;1.98;;
81716;SDS011;71269;44.108;3.074;2023-08-08T12:34:38;3.70;;;1.90;;
81716;SDS011;71269;44.108;3.074;2023-08-08T12:37:03;3.78;;;2.10;;
81716;SDS011;71269;44.108;3.074;2023-08-08T12:39:29;4.63;;;1.95;;
81716;SDS011;71269;44.108;3.074;2023-08-08T12:41:54;3.42;;;1.70;;
81716;SDS011;71269;44.108;3.074;2023-08-08T12:44:20;3.13;;;1.77;;
81716;SDS011;71269;44.108;3.074;2023-08-08T12:46:45;4.30;;;1.90;;
81716;SDS011;71269;44.108;3.074;2023-08-08T12:49:11;2.90;;;1.50;;
81716;SDS011;71269;44.108;3.074;2023-08-08T12:51:37;3.35;;;1.60;;
81716;SDS011;71269;44.108;3.074;2023-08-08T12:54:02;4.78;;;1.63;;
81716;SDS011;71269;44.108;3.074;2023-08-08T12:56:27;3.70;;;1.70;;
81716;SDS011;71269;44.108;3.074;2023-08-08T12:58:53;3.72;;;2.05;;
81716;SDS011;71269;44.108;3.074;2023-08-08T13:01:18;3.72;;;1.40;;
81716;SDS011;71269;44.108;3.074;2023-08-08T13:03:44;3.15;;;1.50;;
81716;SDS011;71269;44.108;3.074;2023-08-08T13:06:09;4.00;;;1.75;;
81716;SDS011;71269;44.108;3.074;2023-08-08T13:08:36;4.13;;;1.83;;
81716;SDS011;71269;44.108;3.074;2023-08-08T13:11:02;3.55;;;1.65;;
81716;SDS011;71269;44.108;3.074;2023-08-08T13:13:28;3.35;;;1.73;;
81716;SDS011;71269;44.108;3.074;2023-08-08T13:15:54;3.63;;;1.52;;
81716;SDS011;71269;44.108;3.074;2023-08-08T13:18:19;2.95;;;1.63;;
81716;SDS011;71269;44.108;3.074;2023-08-08T13:20:44;4.28;;;1.83;;
81716;SDS011;71269;44.108;3.074;2023-08-08T13:23:10;4.20;;;2.10;;
81716;SDS011;71269;44.108;3.074;2023-08-08T13:25:35;3.08;;;1.50;;
81716;SDS011;71269;44.108;3.074;2023-08-08T13:28:02;3.40;;;1.63;;
81716;SDS011;71269;44.108;3.074;2023-08-08T13:30:28;4.03;;;2.00;;
81716;SDS011;71269;44.108;3.074;2023-08-08T13:32:53;4.68;;;1.92;;
81716;SDS011;71269;44.108;3.074;2023-08-08T13:35:19;3.83;;;1.73;;
81716;SDS011;71269;44.108;3.074;2023-08-08T13:37:44;2.65;;;1.40;;
81716;SDS011;71269;44.108;3.074;2023-08-08T13:40:13;3.80;;;1.88;;
81716;SDS011;71269;44.108;3.074;2023-08-08T13:42:38;4.28;;;2.13;;
81716;SDS011;71269;44.108;3.074;2023-08-08T13:45:03;5.00;;;2.28;;
81716;SDS011;71269;44.108;3.074;2023-08-08T13:47:29;5.15;;;2.55;;
81716;SDS011;71269;44.108;3.074;2023-08-08T13:49:55;3.75;;;2.00;;
81716;SDS011;71269;44.108;3.074;2023-08-08T13:52:20;4.85;;;2.10;;
81716;SDS011;71269;44.108;3.074;2023-08-08T13:54:46;3.80;;;2.17;;
81716;SDS011;71269;44.108;3.074;2023-08-08T13:57:11;3.75;;;2.08;;
81716;SDS011;71269;44.108;3.074;2023-08-08T13:59:36;4.03;;;2.30;;
81716;SDS011;71269;44.108;3.074;2023-08-08T14:02:02;3.95;;;2.10;;
81716;SDS011;71269;44.108;3.074;2023-08-08T14:04:27;3.88;;;2.13;;
81716;SDS011;71269;44.108;3.074;2023-08-08T14:06:53;3.90;;;2.00;;
81716;SDS011;71269;44.108;3.074;2023-08-08T14:09:18;4.40;;;1.90;;
81716;SDS011;71269;44.108;3.074;2023-08-08T14:11:43;5.80;;;2.42;;
81716;SDS011;71269;44.108;3.074;2023-08-08T14:14:10;4.97;;;2.38;;
81716;SDS011;71269;44.108;3.074;2023-08-08T14:16:36;3.67;;;2.13;;
81716;SDS011;71269;44.108;3.074;2023-08-08T14:19:01;5.95;;;2.67;;
81716;SDS011;71269;44.108;3.074;2023-08-08T14:21:26;4.18;;;2.35;;
81716;SDS011;71269;44.108;3.074;2023-08-08T14:23:52;3.30;;;1.85;;
81716;SDS011;71269;44.108;3.074;2023-08-08T14:26:17;4.22;;;2.20;;
81716;SDS011;71269;44.108;3.074;2023-08-08T14:28:43;4.32;;;2.25;;
81716;SDS011;71269;44.108;3.074;2023-08-08T14:31:08;4.82;;;2.50;;
81716;SDS011;71269;44.108;3.074;2023-08-08T14:33:33;4.95;;;2.40;;
81716;SDS011;71269;44.108;3.074;2023-08-08T14:35:59;4.13;;;2.17;;
81716;SDS011;71269;44.108;3.074;2023-08-08T14:38:24;4.05;;;1.88;;
81716;SDS011;71269;44.108;3.074;2023-08-08T14:40:50;4.85;;;2.50;;
81716;SDS011;71269;44.108;3.074;2023-08-08T14:43:18;3.22;;;1.70;;
81716;SDS011;71269;44.108;3.074;2023-08-08T14:45:43;4.13;;;2.40;;
81716;SDS011;71269;44.108;3.074;2023-08-08T14:48:09;4.18;;;1.70;;